createdAt,value
2022-08-16T00:00:22.522Z,25.23
2022-08-16T00:02:53.835Z,26.63
2022-08-16T00:05:25.328Z,26.15
2022-08-16T00:07:59.085Z,26.02
2022-08-16T00:10:33.347Z,23.90
2022-08-16T00:13:04.174Z,25.13
2022-08-16T00:15:51.812Z,24.70
2022-08-16T00:18:29.883Z,26.17
2022-08-16T00:21:03.693Z,26.60
2022-08-16T00:23:40.330Z,26.67
2022-08-16T00:26:36.451Z,24.50
2022-08-16T00:29:06.119Z,27.50
2022-08-16T00:31:58.842Z,27.23
2022-08-16T00:34:41.307Z,27.77
2022-08-16T00:37:17.223Z,25.90
2022-08-16T00:39:58.262Z,26.55
2022-08-16T00:42:32.319Z,28.15
2022-08-16T00:45:09.829Z,27.95
2022-08-16T00:47:49.417Z,29.70
2022-08-16T00:50:22.378Z,29.10
2022-08-16T00:53:06.126Z,27.60
2022-08-16T00:55:41.299Z,29.00
2022-08-16T00:58:13.217Z,27.65
2022-08-16T01:00:54.287Z,28.92
2022-08-16T01:03:30.243Z,29.33
2022-08-16T01:06:39.540Z,30.67
2022-08-16T01:08:54.538Z,29.10
2022-08-16T01:11:28.083Z,28.95
2022-08-16T01:14:05.998Z,25.60
2022-08-16T01:16:36.278Z,27.27
2022-08-16T01:19:11.611Z,28.80
2022-08-16T01:21:49.331Z,27.45
2022-08-16T01:24:51.552Z,27.35
2022-08-16T01:27:24.934Z,26.90
2022-08-16T01:30:00.151Z,26.85
2022-08-16T01:32:37.382Z,28.15
2022-08-16T01:35:20.931Z,28.67
2022-08-16T01:37:54.277Z,26.77
2022-08-16T01:40:31.557Z,29.83
2022-08-16T01:43:00.950Z,29.10
2022-08-16T01:45:40.304Z,30.08
2022-08-16T01:48:19.738Z,29.55
2022-08-16T01:51:08.811Z,30.73
2022-08-16T01:53:43.434Z,29.55
2022-08-16T01:56:24.529Z,31.83
2022-08-16T01:58:58.623Z,31.85
2022-08-16T02:01:29.971Z,33.75
2022-08-16T02:04:10.911Z,32.15
2022-08-16T02:06:46.887Z,32.75
2022-08-16T02:09:23.414Z,32.85
2022-08-16T02:11:58.773Z,32.50
2022-08-16T02:14:30.629Z,34.03
2022-08-16T02:17:03.707Z,31.85
2022-08-16T02:19:59.530Z,31.77
2022-08-16T02:22:34.975Z,32.45
2022-08-16T02:25:09.982Z,32.75
2022-08-16T02:27:43.110Z,35.05
2022-08-16T02:30:37.485Z,36.88
2022-08-16T02:33:07.798Z,32.85
2022-08-16T02:35:49.720Z,34.30
2022-08-16T02:38:26.866Z,34.00
2022-08-16T02:40:57.777Z,35.67
2022-08-16T02:43:33.846Z,36.00
2022-08-16T02:46:09.322Z,34.40
2022-08-16T02:48:47.441Z,36.65
2022-08-16T02:51:23.309Z,38.03
2022-08-16T02:53:54.833Z,38.70
2022-08-16T02:56:32.126Z,37.15
2022-08-16T02:59:11.627Z,36.97
2022-08-16T03:01:47.206Z,36.92
2022-08-16T03:04:51.190Z,34.22
2022-08-16T03:07:27.582Z,37.10
2022-08-16T03:10:00.225Z,35.97
2022-08-16T03:12:36.809Z,32.92
2022-08-16T03:15:12.047Z,33.25
2022-08-16T03:17:53.927Z,32.78
2022-08-16T03:20:32.215Z,30.33
2022-08-16T03:23:09.123Z,34.58
2022-08-16T03:25:44.331Z,32.90
2022-08-16T03:28:17.161Z,31.60
2022-08-16T03:30:50.245Z,32.78
2022-08-16T03:33:20.757Z,32.67
2022-08-16T03:36:30.918Z,32.97
2022-08-16T03:38:54.486Z,32.65
2022-08-16T03:41:29.597Z,32.45
2022-08-16T03:44:44.429Z,34.10
2022-08-16T03:47:10.173Z,31.77
2022-08-16T03:49:41.333Z,34.05
2022-08-16T03:52:13.665Z,34.83
2022-08-16T03:54:57.610Z,33.85
2022-08-16T03:57:31.798Z,34.13
2022-08-16T04:00:20.397Z,34.28
2022-08-16T04:03:09.130Z,32.47
2022-08-16T04:05:46.621Z,36.15
2022-08-16T04:08:22.738Z,33.15
2022-08-16T04:10:57.997Z,32.78
2022-08-16T04:14:01.433Z,36.22
2022-08-16T04:16:27.073Z,36.42
2022-08-16T04:19:04.442Z,34.03
2022-08-16T04:21:46.057Z,35.83
2022-08-16T04:24:23.897Z,33.90
2022-08-16T04:26:58.598Z,37.70
2022-08-16T04:29:43.799Z,34.67
2022-08-16T04:32:16.229Z,34.97
2022-08-16T04:34:52.614Z,34.22
2022-08-16T04:37:21.756Z,38.38
2022-08-16T04:39:57.562Z,36.42
2022-08-16T04:42:29.591Z,34.35
2022-08-16T04:45:01.937Z,39.30
2022-08-16T04:47:36.117Z,36.28
2022-08-16T04:50:14.712Z,37.03
2022-08-16T04:53:00.590Z,37.75
2022-08-16T04:55:38.197Z,37.67
2022-08-16T04:58:45.951Z,38.53
2022-08-16T05:00:59.934Z,36.80
2022-08-16T05:03:29.370Z,37.20
2022-08-16T05:06:05.191Z,38.97
2022-08-16T05:08:35.979Z,39.45
2022-08-16T05:11:16.820Z,38.22
2022-08-16T05:13:49.409Z,37.25
2022-08-16T05:16:29.909Z,38.78
2022-08-16T05:19:16.359Z,40.45
2022-08-16T05:22:07.128Z,38.85
2022-08-16T05:24:49.499Z,37.90
2022-08-16T05:27:25.521Z,39.92
2022-08-16T05:30:01.017Z,38.35
2022-08-16T05:32:43.279Z,37.58
2022-08-16T05:35:16.797Z,37.17
2022-08-16T05:38:04.006Z,36.08
2022-08-16T05:40:59.994Z,35.63
2022-08-16T05:43:43.387Z,36.70
2022-08-16T05:46:29.992Z,36.15
2022-08-16T05:49:09.450Z,37.10
2022-08-16T05:51:45.947Z,36.05
2022-08-16T05:54:24.963Z,35.45
2022-08-16T05:57:00.005Z,36.05
2022-08-16T05:59:30.480Z,36.20
2022-08-16T06:02:00.232Z,34.45
2022-08-16T06:04:36.173Z,32.83
2022-08-16T06:07:24.279Z,32.45
2022-08-16T06:10:02.808Z,34.42
2022-08-16T06:12:34.084Z,32.08
2022-08-16T06:15:15.041Z,32.75
2022-08-16T06:17:51.658Z,32.50
2022-08-16T06:20:35.374Z,32.85
2022-08-16T06:23:17.251Z,32.60
2022-08-16T06:26:09.641Z,31.80
2022-08-16T06:28:45.227Z,30.90
2022-08-16T06:31:24.597Z,30.85
2022-08-16T06:33:55.829Z,32.00
2022-08-16T06:36:26.816Z,31.38
2022-08-16T06:39:06.116Z,29.13
2022-08-16T06:41:48.871Z,30.05
2022-08-16T06:44:37.431Z,27.65
2022-08-16T06:47:16.910Z,29.00
2022-08-16T06:49:54.085Z,31.65
2022-08-16T06:52:58.094Z,30.13
2022-08-16T06:55:18.561Z,29.02
2022-08-16T06:57:54.280Z,29.67
2022-08-16T07:00:25.818Z,30.05
2022-08-16T07:03:27.361Z,28.45
2022-08-16T07:05:58.025Z,30.73
2022-08-16T07:08:33.147Z,30.65
2022-08-16T07:11:02.214Z,30.02
2022-08-16T07:14:03.961Z,28.00
2022-08-16T07:16:28.368Z,29.25
2022-08-16T07:19:01.969Z,29.52
2022-08-16T07:21:46.445Z,30.55
2022-08-16T07:24:29.549Z,28.75
2022-08-16T07:27:03.209Z,25.90
2022-08-16T07:29:34.871Z,27.02
2022-08-16T07:32:08.076Z,29.17
2022-08-16T07:34:37.774Z,29.27
2022-08-16T07:37:18.281Z,30.17
2022-08-16T07:40:11.321Z,32.10
2022-08-16T07:42:45.537Z,29.95
2022-08-16T07:45:17.120Z,32.28
2022-08-16T07:47:53.898Z,31.27
2022-08-16T07:50:55.577Z,30.27
2022-08-16T07:53:15.460Z,28.70
2022-08-16T07:55:48.102Z,30.83
2022-08-16T07:58:35.048Z,30.90
2022-08-16T08:01:10.685Z,28.05
2022-08-16T08:03:48.725Z,29.92
2022-08-16T08:06:24.968Z,31.23
2022-08-16T08:08:57.359Z,28.75
2022-08-16T08:11:29.777Z,28.83
2022-08-16T08:14:03.231Z,27.85
2022-08-16T08:16:36.341Z,29.27
2022-08-16T08:19:12.452Z,27.55
2022-08-16T08:22:00.276Z,26.85
2022-08-16T08:24:54.025Z,27.05
2022-08-16T08:27:32.510Z,26.90
2022-08-16T08:30:49.355Z,27.65
2022-08-16T08:33:00.038Z,31.13
2022-08-16T08:35:33.450Z,29.75
2022-08-16T08:38:08.926Z,31.23
2022-08-16T08:40:45.857Z,28.65
2022-08-16T08:43:18.482Z,26.10
2022-08-16T08:45:54.491Z,27.15
2022-08-16T08:48:34.086Z,24.73
2022-08-16T08:51:12.527Z,24.92
2022-08-16T08:53:57.270Z,26.08
2022-08-16T08:56:30.256Z,27.45
2022-08-16T08:59:13.549Z,22.90
2022-08-16T09:01:56.983Z,24.25
2022-08-16T09:04:31.480Z,28.27
2022-08-16T09:07:04.166Z,21.83
2022-08-16T09:09:40.920Z,22.73
2022-08-16T09:12:35.889Z,24.35
2022-08-16T09:15:09.924Z,23.67
2022-08-16T09:17:51.598Z,24.33
2022-08-16T09:20:25.938Z,26.55
2022-08-16T09:22:57.369Z,24.95
2022-08-16T09:25:46.119Z,24.88
2022-08-16T09:29:13.457Z,24.98
2022-08-16T09:31:16.689Z,24.70
2022-08-16T09:33:46.208Z,26.33
2022-08-16T09:36:44.985Z,24.70
2022-08-16T09:39:41.351Z,24.50
2022-08-16T09:42:56.569Z,21.85
2022-08-16T09:45:22.278Z,20.98
2022-08-16T09:48:44.247Z,22.02
2022-08-16T09:51:03.312Z,24.17
2022-08-16T09:53:34.593Z,23.17
2022-08-16T09:56:04.812Z,24.40
2022-08-16T09:59:03.387Z,23.98
2022-08-16T10:04:30.461Z,17.67
2022-08-16T10:07:14.961Z,19.27
2022-08-16T10:09:54.790Z,19.52
2022-08-16T10:12:45.367Z,18.95
2022-08-16T10:15:17.403Z,20.90
2022-08-16T10:18:01.714Z,19.55
2022-08-16T10:20:34.792Z,24.40
2022-08-16T10:23:07.096Z,19.45
2022-08-16T10:28:32.563Z,21.37
2022-08-16T10:31:14.401Z,20.58
2022-08-16T10:33:46.707Z,19.42
2022-08-16T10:36:39.003Z,20.52
2022-08-16T10:39:08.560Z,23.95
2022-08-16T10:41:38.874Z,20.20
2022-08-16T10:44:21.898Z,23.23
2022-08-16T10:46:51.447Z,18.73
2022-08-16T10:49:20.314Z,21.23
2022-08-16T10:52:02.409Z,20.13
2022-08-16T10:57:32.932Z,20.88
2022-08-16T11:00:04.788Z,22.73
2022-08-16T11:02:59.116Z,23.13
2022-08-16T11:05:23.692Z,27.05
2022-08-16T11:07:53.801Z,24.25
2022-08-16T11:13:57.292Z,27.35
2022-08-16T11:16:27.523Z,25.92
2022-08-16T11:19:06.409Z,26.77
2022-08-16T11:24:39.450Z,25.25
2022-08-16T11:27:35.412Z,24.45
2022-08-16T11:30:01.060Z,24.73
2022-08-16T11:32:32.190Z,24.48
2022-08-16T11:35:10.658Z,23.50
2022-08-16T11:40:38.927Z,27.73
2022-08-16T11:43:13.150Z,26.58
2022-08-16T11:45:53.422Z,24.35
2022-08-16T11:48:23.310Z,18.90
2022-08-16T11:50:52.427Z,27.67
2022-08-16T11:53:22.294Z,20.02
2022-08-16T11:55:54.886Z,18.02
2022-08-16T11:58:26.236Z,21.23
2022-08-16T12:01:01.735Z,17.35
2022-08-16T12:03:35.413Z,18.38
2022-08-16T12:06:11.265Z,14.85
2022-08-16T12:09:00.741Z,15.27
2022-08-16T12:11:32.032Z,15.52
2022-08-16T12:14:04.228Z,18.33
2022-08-16T12:16:36.043Z,15.87
2022-08-16T12:19:10.796Z,14.93
2022-08-16T12:21:58.234Z,11.93
2022-08-16T12:24:29.424Z,14.60
2022-08-16T12:27:00.060Z,15.90
2022-08-16T12:29:29.886Z,15.90
2022-08-16T12:32:35.849Z,17.90
2022-08-16T12:34:53.097Z,13.55
2022-08-16T12:37:24.641Z,13.10
2022-08-16T12:39:55.688Z,16.25
2022-08-16T12:42:35.609Z,14.70
2022-08-16T12:45:07.388Z,14.30
2022-08-16T12:48:22.209Z,14.07
2022-08-16T12:50:50.225Z,17.50
2022-08-16T12:53:20.632Z,16.20
2022-08-16T12:55:50.752Z,17.23
2022-08-16T12:58:49.735Z,16.17
2022-08-16T13:01:11.346Z,15.60
2022-08-16T13:03:45.399Z,15.27
2022-08-16T13:06:14.783Z,15.23
2022-08-16T13:08:49.529Z,12.48
2022-08-16T13:11:21.813Z,15.35
2022-08-16T13:13:54.697Z,13.32
2022-08-16T13:16:24.932Z,11.90
2022-08-16T13:18:57.273Z,14.02
2022-08-16T13:21:26.066Z,11.95
2022-08-16T13:23:55.989Z,12.35
2022-08-16T13:26:26.361Z,13.15
2022-08-16T13:28:55.483Z,14.30
2022-08-16T13:31:24.304Z,13.20
2022-08-16T13:33:58.511Z,13.05
2022-08-16T13:36:48.487Z,10.77
2022-08-16T13:39:18.710Z,14.40
2022-08-16T13:41:53.925Z,13.10
2022-08-16T13:44:48.783Z,11.18
2022-08-16T13:47:13.551Z,11.43
2022-08-16T13:49:43.380Z,12.45
2022-08-16T13:52:14.134Z,11.00
2022-08-16T13:54:43.003Z,14.63
2022-08-16T13:57:12.499Z,15.18
2022-08-16T13:59:43.565Z,17.38
2022-08-16T14:02:14.249Z,13.98
2022-08-16T14:04:44.591Z,13.40
2022-08-16T14:07:19.926Z,13.05
2022-08-16T14:09:55.116Z,16.52
2022-08-16T14:12:28.505Z,14.38
2022-08-16T14:15:01.862Z,16.10
2022-08-16T14:18:14.992Z,16.02
2022-08-16T14:20:21.814Z,18.17
2022-08-16T14:22:52.420Z,19.05
2022-08-16T14:25:24.561Z,19.02
2022-08-16T14:27:54.912Z,17.50
2022-08-16T14:30:25.532Z,17.15
2022-08-16T14:32:56.131Z,17.30
2022-08-16T14:35:36.748Z,18.98
2022-08-16T14:38:23.716Z,18.33
2022-08-16T14:40:55.220Z,17.17
2022-08-16T14:43:25.070Z,19.83
2022-08-16T14:45:55.704Z,17.23
2022-08-16T14:48:25.874Z,18.35
2022-08-16T14:50:56.162Z,18.38
2022-08-16T14:53:27.248Z,18.95
2022-08-16T14:55:56.102Z,17.02
2022-08-16T14:58:35.036Z,14.65
2022-08-16T15:01:10.121Z,18.38
2022-08-16T15:06:14.646Z,18.58
2022-08-16T15:08:47.481Z,19.30
2022-08-16T15:11:17.804Z,19.05
2022-08-16T15:13:49.152Z,17.98
2022-08-16T15:16:22.973Z,19.50
2022-08-16T15:18:59.434Z,20.17
2022-08-16T15:21:30.686Z,18.45
2022-08-16T15:24:01.225Z,18.65
2022-08-16T15:26:42.768Z,17.45
2022-08-16T15:29:14.211Z,17.90
2022-08-16T15:31:46.189Z,20.83
2022-08-16T15:34:22.067Z,21.33
2022-08-16T15:36:56.045Z,18.48
2022-08-16T15:39:35.562Z,18.98
2022-08-16T15:42:11.470Z,24.58
2022-08-16T15:44:58.575Z,31.95
2022-08-16T15:47:28.464Z,19.23
2022-08-16T15:49:57.901Z,20.52
2022-08-16T15:52:31.391Z,21.20
2022-08-16T15:55:12.625Z,18.70
2022-08-16T15:57:42.517Z,20.50
2022-08-16T16:00:14.951Z,17.45
2022-08-16T16:02:45.333Z,17.38
2022-08-16T16:05:17.248Z,19.02
2022-08-16T16:07:56.191Z,18.52
2022-08-16T16:10:38.201Z,18.10
2022-08-16T16:13:09.265Z,18.75
2022-08-16T16:15:45.351Z,17.98
2022-08-16T16:18:15.395Z,18.70
2022-08-16T16:20:47.703Z,19.73
2022-08-16T16:23:23.404Z,18.52
2022-08-16T16:25:56.816Z,20.33
2022-08-16T16:28:46.345Z,16.23
2022-08-16T16:31:20.140Z,15.75
2022-08-16T16:33:56.248Z,14.57
2022-08-16T16:36:29.513Z,13.93
2022-08-16T16:39:00.082Z,13.50
2022-08-16T16:41:32.275Z,14.77
2022-08-16T16:46:42.444Z,14.10
2022-08-16T16:49:14.625Z,13.23
2022-08-16T16:51:50.187Z,14.93
2022-08-16T16:54:28.109Z,15.15
2022-08-16T16:56:59.931Z,15.27
2022-08-16T16:59:28.650Z,15.90
2022-08-16T17:02:38.599Z,15.50
2022-08-16T17:04:50.468Z,14.95
2022-08-16T17:07:24.026Z,16.02
2022-08-16T17:09:54.468Z,14.88
2022-08-16T17:12:47.231Z,14.65
2022-08-16T17:15:16.450Z,17.23
2022-08-16T17:18:00.409Z,15.13
2022-08-16T17:20:31.080Z,16.17
2022-08-16T17:23:01.050Z,15.07
2022-08-16T17:25:36.704Z,15.18
2022-08-16T17:28:58.154Z,14.40
2022-08-16T17:30:59.638Z,13.65
2022-08-16T17:33:37.060Z,13.77
2022-08-16T17:36:36.405Z,12.77
2022-08-16T17:39:07.891Z,14.98
2022-08-16T17:41:39.034Z,16.50
2022-08-16T17:44:10.730Z,15.40
2022-08-16T17:46:52.242Z,16.60
2022-08-16T17:49:22.319Z,16.67
2022-08-16T17:51:51.333Z,16.90
2022-08-16T17:54:30.739Z,16.77
2022-08-16T17:57:00.987Z,15.52
2022-08-16T17:59:31.966Z,15.77
2022-08-16T18:02:42.419Z,17.67
2022-08-16T18:05:00.340Z,15.45
2022-08-16T18:07:29.452Z,15.95
2022-08-16T18:09:58.656Z,17.13
2022-08-16T18:12:50.892Z,16.83
2022-08-16T18:15:25.123Z,16.65
2022-08-16T18:17:54.800Z,17.83
2022-08-16T18:20:43.184Z,18.10
2022-08-16T18:23:15.496Z,17.30
2022-08-16T18:25:51.772Z,20.65
2022-08-16T18:28:21.511Z,20.50
2022-08-16T18:30:54.212Z,17.65
2022-08-16T18:33:27.542Z,18.92
2022-08-16T18:35:57.875Z,21.95
2022-08-16T18:38:27.669Z,20.33
2022-08-16T18:40:59.516Z,22.27
2022-08-16T18:44:22.550Z,21.88
2022-08-16T18:46:18.373Z,21.83
2022-08-16T18:48:47.093Z,22.17
2022-08-16T18:51:20.194Z,22.40
2022-08-16T18:53:53.718Z,22.27
2022-08-16T18:56:22.420Z,21.63
2022-08-16T18:58:51.094Z,22.70
2022-08-16T19:01:21.606Z,22.70
2022-08-16T19:03:50.328Z,22.33
2022-08-16T19:06:21.113Z,21.48
2022-08-16T19:08:52.389Z,20.20
2022-08-16T19:11:23.446Z,21.42
2022-08-16T19:13:52.662Z,20.42
2022-08-16T19:16:24.366Z,20.05
2022-08-16T19:18:53.193Z,20.65
2022-08-16T19:21:24.263Z,19.63
2022-08-16T19:23:52.964Z,20.05
2022-08-16T19:26:24.931Z,19.90
2022-08-16T19:28:58.460Z,21.85
2022-08-16T19:31:31.653Z,26.15
2022-08-16T19:34:01.475Z,34.70
2022-08-16T19:36:35.274Z,26.88
2022-08-16T19:39:09.471Z,24.92
2022-08-16T19:42:36.012Z,24.23
2022-08-16T19:45:06.848Z,23.10
2022-08-16T19:47:39.106Z,22.85
2022-08-16T19:50:08.817Z,20.15
2022-08-16T19:52:40.468Z,21.00
2022-08-16T19:55:11.099Z,21.02
2022-08-16T19:57:41.291Z,19.92
2022-08-16T20:00:15.280Z,19.48
2022-08-16T20:02:52.454Z,19.38
2022-08-16T20:05:24.112Z,18.17
2022-08-16T20:07:54.368Z,19.02
2022-08-16T20:10:29.917Z,16.20
2022-08-16T20:13:02.475Z,16.13
2022-08-16T20:15:32.970Z,18.73
2022-08-16T20:18:06.641Z,16.90
2022-08-16T20:20:50.691Z,17.98
2022-08-16T20:23:24.573Z,16.20
2022-08-16T20:25:55.757Z,17.02
2022-08-16T20:28:51.690Z,18.98
2022-08-16T20:31:14.449Z,19.02
2022-08-16T20:33:44.592Z,34.88
2022-08-16T20:36:16.536Z,32.28
2022-08-16T20:38:47.819Z,26.02
2022-08-16T20:41:18.715Z,22.25
2022-08-16T20:43:48.610Z,21.55
2022-08-16T20:46:18.229Z,21.83
2022-08-16T20:48:48.387Z,21.42
2022-08-16T20:51:17.666Z,21.20
2022-08-16T20:53:46.416Z,20.80
2022-08-16T20:56:15.265Z,20.38
2022-08-16T20:58:44.107Z,21.45
2022-08-16T21:01:12.861Z,20.73
2022-08-16T21:03:45.785Z,18.77
2022-08-16T21:06:16.810Z,20.45
2022-08-16T21:08:52.009Z,20.58
2022-08-16T21:11:21.986Z,22.23
2022-08-16T21:13:51.372Z,20.63
2022-08-16T21:16:29.349Z,22.65
2022-08-16T21:18:58.144Z,21.17
2022-08-16T21:21:31.911Z,21.25
2022-08-16T21:24:02.849Z,24.13
2022-08-16T21:26:31.942Z,24.35
2022-08-16T21:29:01.053Z,24.50
2022-08-16T21:31:30.026Z,26.55
2022-08-16T21:33:59.098Z,26.25
2022-08-16T21:36:34.621Z,25.77
2022-08-16T21:39:07.070Z,23.33
2022-08-16T21:41:38.585Z,26.90
2022-08-16T21:44:07.540Z,25.65
2022-08-16T21:46:39.653Z,28.07
2022-08-16T21:49:08.735Z,25.42
2022-08-16T21:51:40.377Z,26.50
2022-08-16T21:54:09.832Z,24.92
2022-08-16T21:56:39.013Z,27.65
2022-08-16T21:59:12.174Z,25.08
2022-08-16T22:01:43.392Z,26.48
2022-08-16T22:04:36.773Z,25.65
2022-08-16T22:07:07.468Z,27.25
2022-08-16T22:09:36.899Z,26.60
2022-08-16T22:12:06.830Z,26.83
2022-08-16T22:14:36.166Z,26.85
2022-08-16T22:17:05.244Z,28.35
2022-08-16T22:19:36.395Z,25.90
2022-08-16T22:22:09.540Z,28.35
2022-08-16T22:24:39.212Z,29.23
2022-08-16T22:27:08.237Z,31.38
2022-08-16T22:29:39.571Z,29.95
2022-08-16T22:32:11.937Z,29.63
2022-08-16T22:34:43.655Z,31.42
2022-08-16T22:37:14.341Z,32.80
2022-08-16T22:39:43.356Z,34.28
2022-08-16T22:42:14.366Z,31.17
2022-08-16T22:44:46.281Z,31.13
2022-08-16T22:47:15.491Z,36.58
2022-08-16T22:49:44.711Z,35.78
2022-08-16T22:52:50.834Z,37.90
2022-08-16T22:55:07.919Z,38.70
2022-08-16T22:57:40.223Z,40.40
2022-08-16T23:00:15.773Z,41.08
2022-08-16T23:02:59.607Z,43.97
2022-08-16T23:05:32.182Z,43.85
2022-08-16T23:08:03.191Z,42.20
2022-08-16T23:10:32.306Z,43.67
2022-08-16T23:13:04.463Z,40.70
2022-08-16T23:15:41.385Z,41.45
2022-08-16T23:18:11.049Z,42.30
2022-08-16T23:20:42.687Z,41.25
2022-08-16T23:23:21.080Z,40.13
2022-08-16T23:25:55.043Z,39.63
2022-08-16T23:28:26.657Z,39.35
2022-08-16T23:30:57.827Z,40.72
2022-08-16T23:33:28.824Z,40.97
2022-08-16T23:36:00.139Z,40.67
2022-08-16T23:38:37.497Z,39.33
2022-08-16T23:41:11.474Z,38.05
2022-08-16T23:46:15.611Z,40.03
2022-08-16T23:49:58.106Z,41.78
2022-08-16T23:51:35.154Z,39.42
2022-08-16T23:54:09.708Z,39.75
2022-08-16T23:56:40.522Z,40.00
2022-08-16T23:59:12.232Z,39.33
